Hovedside
METAR-TAF:

METAR-TAF

Lufthavner :

Bardufoss, Norge

Bardufoss lufthavn

breddegrad: 69-04N, lengdegrad: 018-32E, høyde over havet: 7 m

Gjeldene værobservasjon

Denne rapporten ble laget for 23 minutter siden, klokken 04:20 UTC
Flau vind
Temperatur -7°C
Luftfuktighet 79%
Trykk 1010 hPa
Sikt 10 km eller mer
Få skyer i en høyde av 4000 ft

METAR: ENDU 250420Z 00000KT 9999 FEW040 M07/M10 Q1010 RMK WIND 1100FT 14004KT WIND 2200FT 15009KT

Tid: 06:43 (04:43 UTC)

Varsel

Varsel gyldig fra 25. klokken 00 UTC til 25. klokken 24 UTC
Vind 5 kt fra skiftende retning
Sikt 10 km eller mer
Få skyer i en høyde av 4500 ft

TAF: ENDU 2500/2524 VRB05KT 9999 FEW045

Værobservasjoner og værvarsel for over 4000 flyplasser (METAR- og TAF-rapporter).

Tilgjengelige stasjoner er representert av de røde og gule prikkene på kartet.

Hold musepekeren over prikken for å se navnet på stasjonen.

Klikk så for å se værobservasjoner og -varsler.

For å forandre kartet kan du klikke på den grønne knappen med svart kryss for å zoome inn, på den grønne knappen med strek for å zoome ut, eller på de grønne pilene for å se tilstøtende kart.


METAR-TAF: